createdAt,value
2016-05-06T00:00:40.869Z,1010.14
2016-05-06T00:01:40.886Z,1010.1
2016-05-06T00:02:40.922Z,1010.1
2016-05-06T00:03:40.940Z,1010.12
2016-05-06T00:04:40.958Z,1010.09
2016-05-06T00:05:40.991Z,1010.12
2016-05-06T00:06:41.010Z,1010.13
2016-05-06T00:07:41.043Z,1010.11
2016-05-06T00:08:41.063Z,1010.1
2016-05-06T00:09:41.080Z,1010.09
2016-05-06T00:10:41.193Z,1010.08
2016-05-06T00:11:41.132Z,1010.08
2016-05-06T00:12:41.152Z,1010.09
2016-05-06T00:13:41.185Z,1010.03
2016-05-06T00:14:41.204Z,1010.09
2016-05-06T00:15:41.221Z,1010.09
2016-05-06T00:16:41.255Z,1010.07
2016-05-06T00:17:41.273Z,1010.05
2016-05-06T00:18:41.308Z,1010.06
2016-05-06T00:19:41.326Z,1010.09
2016-05-06T00:20:41.352Z,1010.05
2016-05-06T00:21:41.372Z,1010.08
2016-05-06T00:22:41.390Z,1010.04
2016-05-06T00:23:41.424Z,1010.01
2016-05-06T00:24:41.442Z,1009.99
2016-05-06T00:25:41.460Z,1009.98
2016-05-06T00:26:41.494Z,1009.99
2016-05-06T00:27:41.513Z,1009.97
2016-05-06T00:28:41.531Z,1009.95
2016-05-06T00:29:41.565Z,1009.95
2016-05-06T00:30:41.584Z,1009.94
2016-05-06T00:31:41.601Z,1009.98
2016-05-06T00:32:41.635Z,1009.93
2016-05-06T00:33:41.670Z,1009.93
2016-05-06T00:34:41.687Z,1009.93
2016-05-06T00:35:41.707Z,1009.91
2016-05-06T00:36:41.725Z,1009.9
2016-05-06T00:37:41.758Z,1009.9
2016-05-06T00:38:41.776Z,1009.93
2016-05-06T00:39:41.811Z,1009.92
2016-05-06T00:40:41.828Z,1009.87
2016-05-06T00:41:41.863Z,1009.85
2016-05-06T00:42:41.866Z,1009.79
2016-05-06T00:43:41.900Z,1009.82
2016-05-06T00:44:41.917Z,1009.81
2016-05-06T00:45:41.936Z,1009.79
2016-05-06T00:46:41.969Z,1009.81
2016-05-06T00:47:41.988Z,1009.8
2016-05-06T00:48:42.007Z,1009.8
2016-05-06T00:49:42.041Z,1009.79
2016-05-06T00:50:42.058Z,1009.74
2016-05-06T00:51:42.077Z,1009.74
2016-05-06T00:52:42.111Z,1009.77
2016-05-06T00:53:42.130Z,1009.77
2016-05-06T00:54:42.148Z,1009.77
2016-05-06T00:55:42.276Z,1009.71
2016-05-06T00:56:42.200Z,1009.75
2016-05-06T00:57:42.218Z,1009.74
2016-05-06T00:58:42.252Z,1009.79
2016-05-06T00:59:42.270Z,1009.75
2016-05-06T01:00:42.290Z,1009.74
2016-05-06T01:01:42.323Z,1009.77
2016-05-06T01:02:42.341Z,1009.72
2016-05-06T01:03:42.359Z,1009.71
2016-05-06T01:04:42.393Z,1009.71
2016-05-06T01:05:42.412Z,1009.73
2016-05-06T01:06:42.446Z,1009.7
2016-05-06T01:07:42.464Z,1009.71
2016-05-06T01:08:42.482Z,1009.71
2016-05-06T01:09:42.517Z,1009.71
2016-05-06T01:10:42.534Z,1009.7
2016-05-06T01:11:42.553Z,1009.64
2016-05-06T01:12:42.586Z,1009.66
2016-05-06T01:13:42.606Z,1009.69
2016-05-06T01:14:42.623Z,1009.66
2016-05-06T01:15:42.642Z,1009.63
2016-05-06T01:16:42.675Z,1009.64
2016-05-06T01:17:42.694Z,1009.61
2016-05-06T01:18:42.728Z,1009.64
2016-05-06T01:19:42.747Z,1009.62
2016-05-06T01:20:42.764Z,1009.61
2016-05-06T01:21:42.782Z,1009.58
2016-05-06T01:22:42.817Z,1009.63
2016-05-06T01:23:42.835Z,1009.62
2016-05-06T01:24:42.854Z,1009.57
2016-05-06T01:25:43.027Z,1009.59
2016-05-06T01:26:42.906Z,1009.57
2016-05-06T01:27:42.924Z,1009.55
2016-05-06T01:28:42.958Z,1009.56
2016-05-06T01:29:42.976Z,1009.5
2016-05-06T01:30:42.995Z,1009.5
2016-05-06T01:31:43.029Z,1009.49
2016-05-06T01:32:43.046Z,1009.47
2016-05-06T01:33:43.065Z,1009.49
2016-05-06T01:34:43.083Z,1009.46
2016-05-06T01:35:43.118Z,1009.48
2016-05-06T01:36:43.136Z,1009.45
2016-05-06T01:37:43.153Z,1009.48
2016-05-06T01:38:43.187Z,1009.45
2016-05-06T01:39:43.207Z,1009.45
2016-05-06T01:40:43.225Z,1009.45
2016-05-06T01:41:43.258Z,1009.46
2016-05-06T01:42:43.278Z,1009.39
2016-05-06T01:43:43.295Z,1009.42
2016-05-06T01:44:43.314Z,1009.41
2016-05-06T01:45:43.347Z,1009.43
2016-05-06T01:46:43.366Z,1009.39
2016-05-06T01:47:43.384Z,1009.39
2016-05-06T01:48:43.419Z,1009.38
2016-05-06T01:49:43.436Z,1009.36
2016-05-06T01:50:43.454Z,1009.4
2016-05-06T01:51:43.489Z,1009.34
2016-05-06T01:52:43.508Z,1009.37
2016-05-06T01:53:43.525Z,1009.37
2016-05-06T01:54:43.559Z,1009.37
2016-05-06T01:55:43.625Z,1009.36
2016-05-06T01:56:43.596Z,1009.36
2016-05-06T01:57:43.614Z,1009.37
2016-05-06T01:58:43.648Z,1009.37
2016-05-06T01:59:43.666Z,1009.37
2016-05-06T02:00:43.685Z,1009.36
2016-05-06T02:01:43.718Z,1009.4
2016-05-06T02:02:43.737Z,1009.38
2016-05-06T02:03:43.754Z,1009.41
2016-05-06T02:04:43.774Z,1009.37
2016-05-06T02:05:43.807Z,1009.38
2016-05-06T02:06:43.826Z,1009.38
2016-05-06T02:07:43.844Z,1009.32
2016-05-06T02:08:43.878Z,1009.37
2016-05-06T02:09:43.896Z,1009.34
2016-05-06T02:10:44.242Z,1009.35
2016-05-06T02:11:43.948Z,1009.38
2016-05-06T02:12:43.967Z,1009.35
2016-05-06T02:13:43.986Z,1009.35
2016-05-06T02:14:44.003Z,1009.34
2016-05-06T02:15:44.037Z,1009.31
2016-05-06T02:16:44.056Z,1009.33
2016-05-06T02:17:44.075Z,1009.28
2016-05-06T02:18:44.108Z,1009.25
2016-05-06T02:19:44.127Z,1009.29
2016-05-06T02:20:44.145Z,1009.25
2016-05-06T02:21:44.178Z,1009.29
2016-05-06T02:22:44.197Z,1009.27
2016-05-06T02:23:44.219Z,1009.23
2016-05-06T02:24:44.237Z,1009.22
2016-05-06T02:25:44.256Z,1009.24
2016-05-06T02:26:44.290Z,1009.24
2016-05-06T02:27:44.308Z,1009.21
2016-05-06T02:28:44.326Z,1009.22
2016-05-06T02:29:44.344Z,1009.21
2016-05-06T02:30:44.379Z,1009.2
2016-05-06T02:31:44.397Z,1009.19
2016-05-06T02:32:44.414Z,1009.17
2016-05-06T02:33:44.433Z,1009.15
2016-05-06T02:34:44.467Z,1009.14
2016-05-06T02:35:44.486Z,1009.14
2016-05-06T02:36:44.504Z,1009.13
2016-05-06T02:37:44.539Z,1009.15
2016-05-06T02:38:44.556Z,1009.13
2016-05-06T02:39:44.575Z,1009.12
2016-05-06T02:40:44.593Z,1009.12
2016-05-06T02:41:44.626Z,1009.13
2016-05-06T02:42:44.645Z,1009.09
2016-05-06T02:43:44.664Z,1009.13
2016-05-06T02:44:44.697Z,1009.11
2016-05-06T02:45:44.715Z,1009.12
2016-05-06T02:46:44.735Z,1009.14
2016-05-06T02:47:44.768Z,1009.13
2016-05-06T02:48:44.786Z,1009.12
2016-05-06T02:49:44.804Z,1009.15
2016-05-06T02:50:44.824Z,1009.12
2016-05-06T02:51:44.857Z,1009.15
2016-05-06T02:52:44.875Z,1009.13
2016-05-06T02:53:44.894Z,1009.1
2016-05-06T02:54:44.911Z,1009.11
2016-05-06T02:55:44.946Z,1009.09
2016-05-06T02:56:44.964Z,1009.11
2016-05-06T02:57:44.982Z,1009.09
2016-05-06T02:58:45.001Z,1009.08
2016-05-06T02:59:45.035Z,1009.08
2016-05-06T03:00:45.053Z,1009.09
2016-05-06T03:01:45.071Z,1009.08
2016-05-06T03:02:45.106Z,1009.07
2016-05-06T03:03:45.123Z,1009.04
2016-05-06T03:04:45.142Z,1009.07
2016-05-06T03:05:45.160Z,1009.1
2016-05-06T03:06:45.194Z,1009.08
2016-05-06T03:07:45.197Z,1009.07
2016-05-06T03:08:45.230Z,1009.09
2016-05-06T03:09:45.249Z,1009.03
2016-05-06T03:10:45.283Z,1008.99
2016-05-06T03:11:45.302Z,1009.04
2016-05-06T03:12:45.319Z,1009.04
2016-05-06T03:13:45.338Z,1009.05
2016-05-06T03:14:45.371Z,1009.02
2016-05-06T03:15:45.391Z,1009.02
2016-05-06T03:16:45.408Z,1009.02
2016-05-06T03:17:45.427Z,1009
2016-05-06T03:18:45.445Z,1009.04
2016-05-06T03:19:45.479Z,1008.99
2016-05-06T03:20:45.498Z,1008.97
2016-05-06T03:21:45.515Z,1009
2016-05-06T03:22:45.534Z,1009
2016-05-06T03:23:45.568Z,1008.97
2016-05-06T03:24:45.587Z,1008.96
2016-05-06T03:25:45.620Z,1008.94
2016-05-06T03:26:45.639Z,1008.96
2016-05-06T03:27:45.657Z,1009
2016-05-06T03:28:45.675Z,1008.96
2016-05-06T03:29:45.693Z,1008.97
2016-05-06T03:30:45.728Z,1008.99
2016-05-06T03:31:45.745Z,1008.95
2016-05-06T03:32:45.764Z,1008.93
2016-05-06T03:33:45.783Z,1008.99
2016-05-06T03:34:45.800Z,1008.97
2016-05-06T03:35:45.834Z,1008.95
2016-05-06T03:36:45.853Z,1008.91
2016-05-06T03:37:45.872Z,1008.9
2016-05-06T03:38:45.889Z,1008.87
2016-05-06T03:39:45.924Z,1008.88
2016-05-06T03:40:45.942Z,1008.9
2016-05-06T03:41:46.000Z,1008.96
2016-05-06T03:42:45.986Z,1008.87
2016-05-06T03:43:45.993Z,1008.85
2016-05-06T03:44:46.010Z,1008.87
2016-05-06T03:45:46.044Z,1008.86
2016-05-06T03:46:46.063Z,1008.89
2016-05-06T03:47:46.097Z,1008.86
2016-05-06T03:48:46.115Z,1008.87
2016-05-06T03:49:46.133Z,1008.89
2016-05-06T03:50:46.151Z,1008.9
2016-05-06T03:51:46.169Z,1008.9
2016-05-06T03:52:46.188Z,1008.87
2016-05-06T03:53:46.221Z,1008.86
2016-05-06T03:54:46.241Z,1008.89
2016-05-06T03:55:46.259Z,1008.88
2016-05-06T03:56:46.277Z,1008.88
2016-05-06T03:57:46.310Z,1008.9
2016-05-06T03:58:46.329Z,1008.88
2016-05-06T03:59:46.348Z,1008.91
2016-05-06T04:00:46.366Z,1008.91
2016-05-06T04:01:46.400Z,1008.91
2016-05-06T04:02:46.417Z,1008.91
2016-05-06T04:03:46.437Z,1008.89
2016-05-06T04:04:46.454Z,1008.87
2016-05-06T04:05:46.472Z,1008.91
2016-05-06T04:06:46.507Z,1008.89
2016-05-06T04:07:46.526Z,1008.93
2016-05-06T04:08:46.544Z,1008.88
2016-05-06T04:09:46.561Z,1008.87
2016-05-06T04:10:46.596Z,1008.92
2016-05-06T04:11:46.613Z,1008.85
2016-05-06T04:12:46.633Z,1008.89
2016-05-06T04:13:46.650Z,1008.9
2016-05-06T04:14:46.685Z,1008.89
2016-05-06T04:15:46.703Z,1008.89
2016-05-06T04:16:46.721Z,1008.87
2016-05-06T04:17:46.739Z,1008.87
2016-05-06T04:18:46.773Z,1008.86
2016-05-06T04:19:46.792Z,1008.88
2016-05-06T04:20:46.826Z,1008.88
2016-05-06T04:21:46.829Z,1008.87
2016-05-06T04:22:46.846Z,1008.9
2016-05-06T04:23:46.880Z,1008.9
2016-05-06T04:24:46.899Z,1008.88
2016-05-06T04:25:46.917Z,1008.92
2016-05-06T04:26:46.935Z,1008.84
2016-05-06T04:27:46.954Z,1008.88
2016-05-06T04:28:46.988Z,1008.9
2016-05-06T04:29:47.006Z,1008.89
2016-05-06T04:30:47.024Z,1008.86
2016-05-06T04:31:47.043Z,1008.87
2016-05-06T04:32:47.077Z,1008.88
2016-05-06T04:33:47.095Z,1008.87
2016-05-06T04:34:47.114Z,1008.9
2016-05-06T04:35:47.132Z,1008.87
2016-05-06T04:36:47.165Z,1008.89
2016-05-06T04:37:47.184Z,1008.9
2016-05-06T04:38:47.202Z,1008.89
2016-05-06T04:39:47.220Z,1008.88
2016-05-06T04:40:47.739Z,1008.89
2016-05-06T04:41:47.273Z,1008.86
2016-05-06T04:42:47.291Z,1008.9
2016-05-06T04:43:47.309Z,1008.86
2016-05-06T04:44:47.328Z,1008.87
2016-05-06T04:45:47.346Z,1008.88
2016-05-06T04:46:47.380Z,1008.88
2016-05-06T04:47:47.399Z,1008.9
2016-05-06T04:48:47.417Z,1008.91
2016-05-06T04:49:47.435Z,1008.91
2016-05-06T04:50:47.453Z,1008.89
2016-05-06T04:51:47.487Z,1008.89
2016-05-06T04:52:47.505Z,1008.94
2016-05-06T04:53:47.524Z,1008.93
2016-05-06T04:54:47.543Z,1008.93
2016-05-06T04:55:47.623Z,1008.91
2016-05-06T04:56:47.594Z,1008.92
2016-05-06T04:57:47.613Z,1008.93
2016-05-06T04:58:47.631Z,1008.96
2016-05-06T04:59:47.665Z,1008.94
2016-05-06T05:00:47.683Z,1008.98
2016-05-06T05:01:47.702Z,1008.99
2016-05-06T05:02:47.720Z,1008.99
2016-05-06T05:03:47.753Z,1009.02
2016-05-06T05:04:47.773Z,1009.01
2016-05-06T05:05:47.790Z,1009.05
2016-05-06T05:06:47.809Z,1009.04
2016-05-06T05:07:47.827Z,1009.06
2016-05-06T05:08:47.846Z,1009.08
2016-05-06T05:09:47.879Z,1009.1
2016-05-06T05:10:47.921Z,1009.12
2016-05-06T05:11:47.986Z,1009.11
2016-05-06T05:12:48.051Z,1009.13
2016-05-06T05:13:48.117Z,1009.14
2016-05-06T05:14:48.198Z,1009.15
2016-05-06T05:15:48.249Z,1009.14
2016-05-06T05:16:48.284Z,1009.12
2016-05-06T05:17:48.320Z,1009.11
2016-05-06T05:18:48.355Z,1009.15
2016-05-06T05:19:48.405Z,1009.1
2016-05-06T05:20:48.436Z,1009.09
2016-05-06T05:21:48.460Z,1009.14
2016-05-06T05:22:48.485Z,1009.1
2016-05-06T05:23:48.508Z,1009.09
2016-05-06T05:24:48.550Z,1009.09
2016-05-06T05:25:48.571Z,1009.09
2016-05-06T05:26:48.593Z,1009.07
2016-05-06T05:27:48.613Z,1009.07
2016-05-06T05:28:48.634Z,1009.1
2016-05-06T05:29:48.669Z,1009.07
2016-05-06T05:30:48.689Z,1009.05
2016-05-06T05:31:48.709Z,1009.06
2016-05-06T05:32:48.727Z,1009.03
2016-05-06T05:33:48.763Z,1009.01
2016-05-06T05:34:48.781Z,1009.04
2016-05-06T05:35:48.801Z,1009.04
2016-05-06T05:36:48.818Z,1009.03
2016-05-06T05:37:48.838Z,1009.06
2016-05-06T05:38:48.872Z,1009
2016-05-06T05:39:48.891Z,1009.02
2016-05-06T05:40:48.910Z,1008.99
2016-05-06T05:41:48.928Z,1008.97
2016-05-06T05:42:48.946Z,1009.03
2016-05-06T05:43:48.980Z,1008.99
2016-05-06T05:44:48.999Z,1009
2016-05-06T05:45:49.016Z,1009.01
2016-05-06T05:46:49.035Z,1009
2016-05-06T05:47:49.069Z,1008.97
2016-05-06T05:48:49.088Z,1008.98
2016-05-06T05:49:49.105Z,1009
2016-05-06T05:50:49.124Z,1008.96
2016-05-06T05:51:49.142Z,1008.92
2016-05-06T05:52:49.176Z,1008.94
2016-05-06T05:53:49.195Z,1008.97
2016-05-06T05:54:49.213Z,1008.92
2016-05-06T05:55:49.231Z,1008.94
2016-05-06T05:56:49.265Z,1008.92
2016-05-06T05:57:49.284Z,1008.91
2016-05-06T05:58:49.301Z,1008.91
2016-05-06T05:59:49.320Z,1008.92
2016-05-06T06:00:49.354Z,1008.87
2016-05-06T06:01:49.372Z,1008.88
2016-05-06T06:02:49.390Z,1008.88
2016-05-06T06:03:49.409Z,1008.87
2016-05-06T06:04:49.427Z,1008.84
2016-05-06T06:05:49.445Z,1008.87
2016-05-06T06:06:49.480Z,1008.91
2016-05-06T06:07:49.498Z,1008.88
2016-05-06T06:08:49.531Z,1008.88
2016-05-06T06:09:49.534Z,1008.86
2016-05-06T06:10:49.615Z,1008.88
2016-05-06T06:11:49.586Z,1008.88
2016-05-06T06:12:49.605Z,1008.91
2016-05-06T06:13:49.639Z,1008.94
2016-05-06T06:14:49.642Z,1008.91
2016-05-06T06:15:49.691Z,1008.91
2016-05-06T06:16:49.693Z,1008.88
2016-05-06T06:17:49.728Z,1008.87
2016-05-06T06:18:49.746Z,1008.85
2016-05-06T06:19:49.765Z,1008.84
2016-05-06T06:20:49.783Z,1008.83
2016-05-06T06:21:49.801Z,1008.82
2016-05-06T06:22:49.835Z,1008.8
2016-05-06T06:23:49.837Z,1008.8
2016-05-06T06:24:49.872Z,1008.79
2016-05-06T06:25:49.921Z,1008.81
2016-05-06T06:26:49.924Z,1008.83
2016-05-06T06:27:49.926Z,1008.78
2016-05-06T06:28:49.960Z,1008.8
2016-05-06T06:29:49.978Z,1008.78
2016-05-06T06:30:49.998Z,1008.79
2016-05-06T06:31:50.015Z,1008.8
2016-05-06T06:32:50.049Z,1008.82
2016-05-06T06:33:50.068Z,1008.81
2016-05-06T06:34:50.086Z,1008.84
2016-05-06T06:35:50.103Z,1008.83
2016-05-06T06:36:50.139Z,1008.83
2016-05-06T06:37:50.156Z,1008.79
2016-05-06T06:38:50.175Z,1008.82
2016-05-06T06:39:50.194Z,1008.77
2016-05-06T06:40:50.227Z,1008.8
2016-05-06T06:41:50.245Z,1008.8
2016-05-06T06:42:50.263Z,1008.8
2016-05-06T06:43:50.282Z,1008.78
2016-05-06T06:44:50.316Z,1008.77
2016-05-06T06:45:50.335Z,1008.77
2016-05-06T06:46:50.353Z,1008.75
2016-05-06T06:47:50.386Z,1008.74
2016-05-06T06:48:50.405Z,1008.74
2016-05-06T06:49:50.423Z,1008.78
2016-05-06T06:50:50.441Z,1008.76
2016-05-06T06:51:50.476Z,1008.75
2016-05-06T06:52:50.494Z,1008.75
2016-05-06T06:53:50.512Z,1008.75
2016-05-06T06:54:50.546Z,1008.7
2016-05-06T06:55:51.048Z,1008.71
2016-05-06T06:56:50.598Z,1008.7
2016-05-06T06:57:50.601Z,1008.72
2016-05-06T06:58:50.619Z,1008.68
2016-05-06T06:59:50.654Z,1008.65
2016-05-06T07:00:50.671Z,1008.64
2016-05-06T07:01:50.690Z,1008.65
2016-05-06T07:02:50.709Z,1008.65
2016-05-06T07:03:50.742Z,1008.65
2016-05-06T07:04:50.760Z,1008.63
2016-05-06T07:05:50.778Z,1008.59
2016-05-06T07:06:50.812Z,1008.6
2016-05-06T07:07:50.831Z,1008.57
2016-05-06T07:08:50.849Z,1008.6
2016-05-06T07:09:50.868Z,1008.55
2016-05-06T07:10:50.902Z,1008.58
2016-05-06T07:11:50.919Z,1008.57
2016-05-06T07:12:50.938Z,1008.56
2016-05-06T07:13:50.972Z,1008.57
2016-05-06T07:14:50.990Z,1008.58
2016-05-06T07:15:51.008Z,1008.57
2016-05-06T07:16:51.043Z,1008.6
2016-05-06T07:17:51.061Z,1008.58
2016-05-06T07:18:51.080Z,1008.54
2016-05-06T07:19:51.097Z,1008.56
2016-05-06T07:20:51.132Z,1008.56
2016-05-06T07:21:51.149Z,1008.56
2016-05-06T07:22:51.204Z,1008.58
2016-05-06T07:23:51.270Z,1008.52
2016-05-06T07:24:51.225Z,1008.58
2016-05-06T07:25:51.243Z,1008.53
2016-05-06T07:26:51.262Z,1008.53
2016-05-06T07:27:51.296Z,1008.54
2016-05-06T07:28:51.314Z,1008.54
2016-05-06T07:29:51.332Z,1008.52
2016-05-06T07:30:51.367Z,1008.55
2016-05-06T07:31:51.385Z,1008.6
2016-05-06T07:32:51.404Z,1008.57
2016-05-06T07:33:51.437Z,1008.56
2016-05-06T07:34:51.455Z,1008.54
2016-05-06T07:35:51.473Z,1008.51
2016-05-06T07:36:51.508Z,1008.47
2016-05-06T07:37:51.525Z,1008.5
2016-05-06T07:38:51.544Z,1008.5
2016-05-06T07:39:51.578Z,1008.48
2016-05-06T07:40:51.597Z,1008.46
2016-05-06T07:41:51.614Z,1008.45
2016-05-06T07:42:51.649Z,1008.43
2016-05-06T07:43:51.667Z,1008.44
2016-05-06T07:44:51.701Z,1008.45
2016-05-06T07:45:51.719Z,1008.42
2016-05-06T07:46:51.738Z,1008.41
2016-05-06T07:47:51.771Z,1008.41
2016-05-06T07:48:51.791Z,1008.43
2016-05-06T07:49:51.808Z,1008.4
2016-05-06T07:50:51.842Z,1008.36
2016-05-06T07:51:51.860Z,1008.38
2016-05-06T07:52:51.879Z,1008.38
2016-05-06T07:53:51.912Z,1008.37
2016-05-06T07:54:51.931Z,1008.39
2016-05-06T07:55:51.965Z,1008.37
2016-05-06T07:56:51.984Z,1008.37
2016-05-06T07:57:52.001Z,1008.37
2016-05-06T07:58:52.036Z,1008.35
2016-05-06T07:59:52.054Z,1008.33
2016-05-06T08:00:52.072Z,1008.35
2016-05-06T08:01:52.106Z,1008.35
2016-05-06T08:02:52.125Z,1008.37
2016-05-06T08:03:52.158Z,1008.33
2016-05-06T08:04:52.176Z,1008.34
2016-05-06T08:05:52.195Z,1008.34
2016-05-06T08:06:52.229Z,1008.37
2016-05-06T08:07:52.247Z,1008.31
2016-05-06T08:08:52.375Z,1008.37
2016-05-06T08:09:52.300Z,1008.31
2016-05-06T08:10:52.333Z,1008.36
2016-05-06T08:11:52.352Z,1008.32
2016-05-06T08:12:52.369Z,1008.39
2016-05-06T08:13:52.405Z,1008.37
2016-05-06T08:14:52.422Z,1008.36
2016-05-06T08:15:52.441Z,1008.32
2016-05-06T08:16:52.474Z,1008.36
2016-05-06T08:17:52.508Z,1008.34
2016-05-06T08:18:52.527Z,1008.36
2016-05-06T08:19:52.545Z,1008.35
2016-05-06T08:20:52.579Z,1008.37
2016-05-06T08:21:52.597Z,1008.29
2016-05-06T08:22:52.632Z,1008.33
2016-05-06T08:23:52.649Z,1008.33
2016-05-06T08:24:52.684Z,1008.33
2016-05-06T08:25:52.702Z,1008.32
2016-05-06T08:26:52.735Z,1008.3
2016-05-06T08:27:52.754Z,1008.31
2016-05-06T08:28:52.773Z,1008.29
2016-05-06T08:29:52.806Z,1008.26
2016-05-06T08:30:52.825Z,1008.32
2016-05-06T08:31:52.859Z,1008.24
2016-05-06T08:32:52.877Z,1008.23
2016-05-06T08:33:52.911Z,1008.24
2016-05-06T08:34:52.929Z,1008.21
2016-05-06T08:35:52.948Z,1008.21
2016-05-06T08:36:52.981Z,1008.17
2016-05-06T08:37:53.015Z,1008.18
2016-05-06T08:38:53.033Z,1008.17
2016-05-06T08:39:53.068Z,1008.2
2016-05-06T08:40:53.430Z,1008.15
2016-05-06T08:41:53.105Z,1008.18
2016-05-06T08:42:53.138Z,1008.19
2016-05-06T08:43:53.156Z,1008.23
2016-05-06T08:44:53.191Z,1008.17
2016-05-06T08:45:53.208Z,1008.14
2016-05-06T08:46:53.243Z,1008.17
2016-05-06T08:47:53.261Z,1008.11
2016-05-06T08:48:53.294Z,1008.13
2016-05-06T08:49:53.329Z,1008.13
2016-05-06T08:50:53.347Z,1008.11
2016-05-06T08:51:53.381Z,1008.11
2016-05-06T08:52:53.400Z,1008.11
2016-05-06T08:53:53.418Z,1008.06
2016-05-06T08:54:53.452Z,1008.11
2016-05-06T08:55:53.485Z,1008.07
2016-05-06T08:56:53.504Z,1008.02
2016-05-06T08:57:53.538Z,1008.04
2016-05-06T08:58:53.557Z,1008.03
2016-05-06T08:59:53.590Z,1008.06
2016-05-06T09:00:53.609Z,1008.02
2016-05-06T09:01:53.673Z,1008.02
2016-05-06T09:02:53.677Z,1007.97
2016-05-06T09:03:53.695Z,1008.01
2016-05-06T09:04:53.713Z,1007.99
2016-05-06T09:05:53.747Z,1007.99
2016-05-06T09:06:53.781Z,1007.96
2016-05-06T09:07:53.799Z,1007.98
2016-05-06T09:08:53.833Z,1007.96
2016-05-06T09:09:53.867Z,1007.99
2016-05-06T09:10:53.886Z,1007.96
2016-05-06T09:11:54.373Z,1007.97
2016-05-06T09:12:53.938Z,1007.96
2016-05-06T09:13:53.972Z,1007.94
2016-05-06T09:14:54.005Z,1007.92
2016-05-06T09:15:54.024Z,1007.89
2016-05-06T09:16:54.042Z,1007.88
2016-05-06T09:17:54.077Z,1007.9
2016-05-06T09:18:54.094Z,1007.89
2016-05-06T09:19:54.128Z,1007.9
2016-05-06T09:20:54.162Z,1007.91
2016-05-06T09:21:54.181Z,1007.89
2016-05-06T09:22:54.215Z,1007.89
2016-05-06T09:23:54.248Z,1007.84
2016-05-06T09:24:54.267Z,1007.91
2016-05-06T09:25:54.302Z,1007.89
2016-05-06T09:26:54.335Z,1007.84
2016-05-06T09:27:54.354Z,1007.87
2016-05-06T09:28:54.387Z,1007.8
2016-05-06T09:29:54.405Z,1007.81
2016-05-06T09:30:54.439Z,1007.79
2016-05-06T09:31:54.457Z,1007.83
2016-05-06T09:32:54.492Z,1007.79
2016-05-06T09:33:54.526Z,1007.79
2016-05-06T09:34:54.544Z,1007.79
2016-05-06T09:35:54.578Z,1007.8
2016-05-06T09:36:54.612Z,1007.77
2016-05-06T09:37:54.631Z,1007.76
2016-05-06T09:38:54.664Z,1007.79
2016-05-06T09:39:54.698Z,1007.81
2016-05-06T09:40:55.389Z,1007.84
2016-05-06T09:41:54.750Z,1007.74
2016-05-06T09:42:54.769Z,1007.74
2016-05-06T09:43:54.803Z,1007.74
2016-05-06T09:44:54.837Z,1007.73
2016-05-06T09:45:54.870Z,1007.74
2016-05-06T09:46:54.889Z,1007.76
2016-05-06T09:47:54.923Z,1007.79
2016-05-06T09:48:54.956Z,1007.76
2016-05-06T09:49:54.974Z,1007.75
2016-05-06T09:50:55.009Z,1007.7
2016-05-06T09:51:55.043Z,1007.69
2016-05-06T09:52:55.061Z,1007.65
2016-05-06T09:53:55.095Z,1007.72
2016-05-06T09:54:55.129Z,1007.67
2016-05-06T09:55:55.163Z,1007.69
2016-05-06T09:56:55.182Z,1007.68
2016-05-06T09:57:55.215Z,1007.66
2016-05-06T09:58:55.233Z,1007.72
2016-05-06T09:59:55.267Z,1007.7
2016-05-06T10:00:55.302Z,1007.66
2016-05-06T10:01:55.335Z,1007.72
2016-05-06T10:02:55.368Z,1007.65
2016-05-06T10:03:55.388Z,1007.65
2016-05-06T10:04:55.421Z,1007.64
2016-05-06T10:05:55.455Z,1007.66
2016-05-06T10:06:55.474Z,1007.65
2016-05-06T10:07:55.507Z,1007.65
2016-05-06T10:08:55.542Z,1007.66
2016-05-06T10:09:55.560Z,1007.64
2016-05-06T10:10:55.797Z,1007.62
2016-05-06T10:11:55.628Z,1007.62
2016-05-06T10:12:55.662Z,1007.6
2016-05-06T10:13:55.681Z,1007.61
2016-05-06T10:14:55.714Z,1007.64
2016-05-06T10:15:55.748Z,1007.65
2016-05-06T10:16:55.766Z,1007.67
2016-05-06T10:17:55.800Z,1007.64
2016-05-06T10:18:55.834Z,1007.6
2016-05-06T10:19:55.868Z,1007.56
2016-05-06T10:20:55.887Z,1007.57
2016-05-06T10:21:55.920Z,1007.63
2016-05-06T10:22:55.955Z,1007.65
2016-05-06T10:23:55.988Z,1007.56
2016-05-06T10:24:56.006Z,1007.57
2016-05-06T10:25:56.056Z,1007.58
2016-05-06T10:26:56.074Z,1007.52
2016-05-06T10:27:56.108Z,1007.49
2016-05-06T10:28:56.143Z,1007.45
2016-05-06T10:29:56.176Z,1007.44
2016-05-06T10:30:56.194Z,1007.48
2016-05-06T10:31:56.229Z,1007.47
2016-05-06T10:32:56.263Z,1007.46
2016-05-06T10:33:56.296Z,1007.45
2016-05-06T10:34:56.315Z,1007.4
2016-05-06T10:35:56.348Z,1007.38
2016-05-06T10:36:56.382Z,1007.41
2016-05-06T10:37:56.417Z,1007.41
2016-05-06T10:38:56.450Z,1007.39
2016-05-06T10:39:56.484Z,1007.41
2016-05-06T10:40:56.503Z,1007.37
2016-05-06T10:41:56.553Z,1007.36
2016-05-06T10:42:56.570Z,1007.28
2016-05-06T10:43:56.604Z,1007.22
2016-05-06T10:44:56.623Z,1007.21
2016-05-06T10:45:56.656Z,1007.17
2016-05-06T10:46:56.691Z,1007.21
2016-05-06T10:47:56.725Z,1007.2
2016-05-06T10:48:56.758Z,1007.19
2016-05-06T10:49:56.809Z,1007.18
2016-05-06T10:50:56.827Z,1007.17
2016-05-06T10:51:56.860Z,1007.22
2016-05-06T10:52:56.878Z,1007.2
2016-05-06T10:53:56.913Z,1007.18
2016-05-06T10:54:56.947Z,1007.18
2016-05-06T10:55:56.981Z,1007.2
2016-05-06T10:56:57.014Z,1007.11
2016-05-06T10:57:57.033Z,1007.17
2016-05-06T10:58:57.066Z,1007.13
2016-05-06T10:59:57.102Z,1007.08
2016-05-06T11:00:57.134Z,1007.07
2016-05-06T11:01:57.169Z,1007.03
2016-05-06T11:02:57.187Z,1007.03
2016-05-06T11:03:57.221Z,1007.01
2016-05-06T11:04:57.254Z,1007.02
2016-05-06T11:05:57.288Z,1006.99
2016-05-06T11:06:57.323Z,1007.01
2016-05-06T11:07:57.357Z,1007.08
2016-05-06T11:08:57.390Z,1007.01
2016-05-06T11:09:57.424Z,1007.01
2016-05-06T11:10:57.459Z,1006.99
2016-05-06T11:11:57.493Z,1006.99
2016-05-06T11:12:57.511Z,1006.92
2016-05-06T11:13:57.545Z,1006.93
2016-05-06T11:14:57.579Z,1006.95
2016-05-06T11:15:57.628Z,1007
2016-05-06T11:16:57.662Z,1006.97
2016-05-06T11:17:57.681Z,1006.93
2016-05-06T11:18:57.698Z,1006.86
2016-05-06T11:19:57.733Z,1006.87
2016-05-06T11:20:57.767Z,1006.82
2016-05-06T11:21:57.801Z,1006.86
2016-05-06T11:22:57.834Z,1006.88
2016-05-06T11:23:57.868Z,1006.91
2016-05-06T11:24:57.903Z,1006.86
2016-05-06T11:25:57.936Z,1006.86
2016-05-06T11:26:57.955Z,1006.81
2016-05-06T11:27:58.005Z,1006.81
2016-05-06T11:28:58.022Z,1006.91
2016-05-06T11:29:58.057Z,1006.84
2016-05-06T11:30:58.091Z,1006.84
2016-05-06T11:31:58.124Z,1006.8
2016-05-06T11:32:58.158Z,1006.76
2016-05-06T11:33:58.193Z,1006.78
2016-05-06T11:34:58.226Z,1006.72
2016-05-06T11:35:58.261Z,1006.67
2016-05-06T11:36:58.294Z,1006.64
2016-05-06T11:37:58.328Z,1006.53
2016-05-06T11:38:58.363Z,1006.6
2016-05-06T11:39:58.396Z,1006.61
2016-05-06T11:40:58.430Z,1006.6
2016-05-06T11:41:58.448Z,1006.56
2016-05-06T11:42:58.482Z,1006.57
2016-05-06T11:43:58.516Z,1006.6
2016-05-06T11:44:58.550Z,1006.59
2016-05-06T11:45:58.600Z,1006.59
2016-05-06T11:46:58.618Z,1006.5
2016-05-06T11:47:58.651Z,1006.48
2016-05-06T11:48:58.686Z,1006.46
2016-05-06T11:49:58.720Z,1006.47
2016-05-06T11:50:58.754Z,1006.46
2016-05-06T11:51:58.787Z,1006.45
2016-05-06T11:52:58.822Z,1006.47
2016-05-06T11:53:58.856Z,1006.42
2016-05-06T11:54:58.889Z,1006.44
2016-05-06T11:55:58.923Z,1006.44
2016-05-06T11:56:58.957Z,1006.46
2016-05-06T11:57:58.976Z,1006.44
2016-05-06T11:58:59.119Z,1006.41
2016-05-06T11:59:59.058Z,1006.37
2016-05-06T12:00:59.078Z,1006.35
2016-05-06T12:01:59.127Z,1006.38
2016-05-06T12:02:59.146Z,1006.37
2016-05-06T12:03:59.179Z,1006.35
2016-05-06T12:04:59.214Z,1006.35
2016-05-06T12:05:59.247Z,1006.34
2016-05-06T12:06:59.281Z,1006.32
2016-05-06T12:07:59.316Z,1006.35
2016-05-06T12:08:59.349Z,1006.39